createdAt,value
2024-02-18T00:03:09.777Z,9.92
2024-02-18T00:13:12.593Z,9.90
2024-02-18T00:23:16.747Z,9.92
2024-02-18T00:33:19.719Z,9.87
2024-02-18T00:43:24.020Z,9.64
2024-02-18T00:53:26.823Z,9.69
2024-02-18T01:03:31.117Z,9.85
2024-02-18T01:13:34.037Z,9.67
2024-02-18T01:23:38.396Z,9.74
2024-02-18T01:33:43.952Z,9.74
2024-02-18T01:43:48.299Z,9.75
2024-02-18T01:53:52.319Z,9.46
2024-02-18T02:03:58.594Z,9.31
2024-02-18T02:14:03.189Z,9.23
2024-02-18T02:24:07.598Z,9.21
2024-02-18T02:34:11.909Z,9.05
2024-02-18T02:44:14.971Z,9.31
2024-02-18T02:54:19.304Z,9.41
2024-02-18T03:04:22.455Z,9.38
2024-02-18T03:14:26.676Z,9.14
2024-02-18T03:24:29.901Z,9.00
2024-02-18T03:34:34.279Z,8.91
2024-02-18T03:44:37.100Z,8.86
2024-02-18T03:54:41.305Z,8.89
2024-02-18T04:04:44.277Z,8.76
2024-02-18T04:14:48.589Z,8.81
2024-02-18T04:24:51.433Z,8.70
2024-02-18T04:34:55.830Z,8.43
2024-02-18T04:44:58.734Z,8.31
2024-02-18T04:55:03.200Z,8.03
2024-02-18T05:05:06.700Z,7.81
2024-02-18T05:15:11.387Z,7.82
2024-02-18T05:25:14.215Z,7.70
2024-02-18T05:35:18.524Z,7.56
2024-02-18T05:45:23.723Z,7.41
2024-02-18T05:55:27.989Z,7.35
2024-02-18T06:05:30.801Z,7.18
2024-02-18T06:15:35.054Z,6.91
2024-02-18T06:25:38.604Z,6.85
2024-02-18T06:35:44.472Z,6.67
2024-02-18T06:45:47.537Z,6.74
2024-02-18T06:55:51.902Z,6.96
2024-02-18T07:05:54.787Z,7.22
2024-02-18T07:15:58.989Z,7.51
2024-02-18T07:26:01.862Z,7.73
2024-02-18T07:36:06.651Z,7.81
2024-02-18T07:46:10.021Z,8.12
2024-02-18T07:56:15.617Z,8.35
2024-02-18T08:06:18.499Z,8.32
2024-02-18T08:16:22.762Z,8.73
2024-02-18T08:26:26.675Z,8.89
2024-02-18T08:36:31.032Z,8.98
2024-02-18T08:46:36.278Z,9.02
2024-02-18T08:56:41.329Z,8.88
2024-02-18T09:06:44.269Z,8.80
2024-02-18T09:16:49.241Z,8.79
2024-02-18T09:26:52.047Z,8.93
2024-02-18T09:36:56.344Z,9.22
2024-02-18T09:47:00.828Z,9.38
2024-02-18T09:57:07.605Z,9.56
2024-02-18T10:07:10.496Z,9.85
2024-02-18T10:17:16.165Z,10.05
2024-02-18T10:27:19.854Z,10.15
2024-02-18T10:37:29.007Z,9.91
2024-02-18T10:47:33.768Z,10.18
2024-02-18T10:57:41.959Z,10.35
2024-02-18T11:07:45.664Z,10.38
2024-02-18T11:17:50.233Z,10.05
2024-02-18T11:27:53.174Z,10.32
2024-02-18T11:37:58.698Z,10.68
2024-02-18T11:48:03.926Z,10.51
2024-02-18T11:58:08.259Z,10.73
2024-02-18T12:08:19.479Z,10.85
2024-02-18T12:18:22.322Z,11.15
2024-02-18T12:28:26.567Z,10.88
2024-02-18T12:38:29.672Z,10.88
2024-02-18T12:48:34.098Z,10.64
2024-02-18T12:58:37.557Z,10.78
2024-02-18T13:08:41.743Z,10.58
2024-02-18T13:18:44.851Z,10.76
2024-02-18T13:28:50.195Z,10.86
2024-02-18T13:38:53.121Z,11.31
2024-02-18T13:48:57.406Z,11.40
2024-02-18T13:59:00.261Z,11.00
2024-02-18T14:09:07.427Z,11.05
2024-02-18T14:19:11.295Z,10.94
2024-02-18T14:29:15.559Z,10.80
2024-02-18T14:39:18.413Z,10.56
2024-02-18T14:49:29.618Z,10.64
2024-02-18T14:59:38.134Z,10.43
2024-02-18T15:09:42.343Z,10.35
2024-02-18T15:19:45.356Z,10.07
2024-02-18T15:29:49.650Z,9.78
2024-02-18T15:39:52.477Z,9.47
2024-02-18T15:49:57.863Z,9.29
2024-02-18T16:00:00.761Z,9.13
2024-02-18T16:10:05.414Z,8.90
2024-02-18T16:20:09.490Z,8.76
2024-02-18T16:30:16.611Z,8.59
2024-02-18T16:40:19.671Z,8.39
2024-02-18T16:50:23.938Z,8.26
2024-02-18T17:00:28.204Z,8.06
2024-02-18T17:10:32.874Z,8.03
2024-02-18T17:20:35.749Z,8.08
2024-02-18T17:30:40.677Z,8.00
2024-02-18T17:40:43.633Z,7.83
2024-02-18T17:50:47.850Z,7.87
2024-02-18T18:00:50.724Z,7.89
2024-02-18T18:10:55.001Z,7.73
2024-02-18T18:20:57.794Z,7.79
2024-02-18T18:31:02.090Z,7.84
2024-02-18T18:41:05.230Z,7.84
2024-02-18T18:51:09.460Z,7.86
2024-02-18T19:01:12.300Z,7.99
2024-02-18T19:11:16.848Z,8.00
2024-02-18T19:21:20.524Z,8.02
2024-02-18T19:31:25.113Z,7.95
2024-02-18T19:41:27.990Z,7.92
2024-02-18T19:51:32.167Z,8.05
2024-02-18T20:01:35.195Z,8.10
2024-02-18T20:11:43.460Z,8.15
2024-02-18T20:21:47.750Z,8.12
2024-02-18T20:31:52.086Z,8.17
2024-02-18T20:41:54.897Z,8.31
2024-02-18T20:51:59.098Z,8.29
2024-02-18T21:02:02.160Z,8.48
2024-02-18T21:12:07.881Z,8.40
2024-02-18T21:22:10.764Z,8.54
2024-02-18T21:32:14.945Z,8.59
2024-02-18T21:42:17.755Z,8.61
2024-02-18T21:52:21.961Z,8.64
2024-02-18T22:02:24.808Z,8.60
2024-02-18T22:12:29.008Z,8.72
2024-02-18T22:22:31.802Z,8.69
2024-02-18T22:32:35.981Z,8.75
2024-02-18T22:42:38.925Z,8.54
2024-02-18T22:52:43.153Z,8.69
2024-02-18T23:02:46.256Z,8.62
2024-02-18T23:12:50.660Z,8.71
2024-02-18T23:22:53.507Z,8.74
2024-02-18T23:32:57.794Z,8.82
2024-02-18T23:43:00.725Z,8.87
2024-02-18T23:53:05.345Z,8.84
